Погода Тамагана 2 недели

Кгатленг, Ботсвана

24 июля-06 августа
  • 24июля
    Сегодня
    +6°
    +28°
    Ясно и безоблачно
    ВремяПогодаТемператураВлажностьДавлениеВетер, м/сВероятность осадков
    02:00Ясно и безоблачно+8°C21 %673 мм2.4 м/с2 %
    05:00Ясно и безоблачно+8°C19 %672 мм2.5 м/с2 %
    08:00Ясно и безоблачно+11°C18 %674 мм2.5 м/с2 %
    11:00Ясно и безоблачно+23°C9 %677 мм2.3 м/с2 %
    14:00Ясно и безоблачно+27°C4 %676 мм3.4 м/с2 %
    17:00Ясно и безоблачно+26°C4 %675 мм3.0 м/с2 %
    20:00Практически безоблачно+15°C7 %673 мм2.6 м/с2 %
    23:00Ясно и безоблачно+10°C10 %672 мм2.6 м/с2 %
  • 25июля
    Четверг
    +8°
    +27°
    Ясно и безоблачно
    ВремяПогодаТемператураВлажностьДавлениеВетер, м/сВероятность осадков
    02:00Ясно и безоблачно+9°C13 %672 мм3.3 м/с2 %
    05:00Ясно и безоблачно+6°C16 %671 мм2.3 м/с2 %
    08:00Ясно и безоблачно+10°C17 %672 мм2.7 м/с2 %
    11:00Ясно и безоблачно+22°C10 %676 мм1.7 м/с2 %
    14:00Ясно и безоблачно+26°C7 %675 мм1.6 м/с2 %
    17:00Ясно и безоблачно+26°C13 %674 мм1.0 м/с2 %
    20:00Ясно и безоблачно+14°C14 %672 мм1.9 м/с2 %
    23:00Ясно и безоблачно+10°C15 %671 мм2.0 м/с2 %
  • 26июля
    Пятница
    +7°
    +27°
    Ясно и безоблачно
    ВремяПогодаТемператураВлажностьДавлениеВетер, м/сВероятность осадков
    02:00Ясно и безоблачно+8°C19 %670 мм1.4 м/с2 %
    05:00Ясно и безоблачно+9°C19 %670 мм0.6 м/с2 %
    08:00Ясно и безоблачно+9°C22 %672 мм2.6 м/с2 %
    11:00Ясно и безоблачно+19°C24 %675 мм2.3 м/с2 %
    14:00Ясно и безоблачно+25°C15 %673 мм1.5 м/с2 %
    17:00Ясно и безоблачно+26°C13 %672 мм2.6 м/с2 %
    20:00Ясно и безоблачно+15°C30 %670 мм2.6 м/с2 %
    23:00Ясно и безоблачно+12°C36 %670 мм1.5 м/с2 %
  • 27июля
    Суббота
    +5°
    +27°
    Ясно и безоблачно
    ВремяПогодаТемператураВлажностьДавлениеВетер, м/сВероятность осадков
    02:00Ясно и безоблачно+9°C44 %669 мм1.7 м/с2 %
    05:00Ясно и безоблачно+9°C57 %669 мм1.7 м/с2 %
    08:00Ясно и безоблачно+10°C63 %671 мм1.3 м/с2 %
    11:00Ясно и безоблачно+21°C40 %674 мм1.0 м/с2 %
    14:00Ясно и безоблачно+26°C13 %672 мм1.7 м/с2 %
    17:00Ясно и безоблачно+26°C3 %672 мм3.5 м/с2 %
    20:00Ясно и безоблачно+15°C7 %671 мм3.1 м/с2 %
    23:00Ясно и безоблачно+10°C11 %671 мм3.4 м/с2 %
  • 28июля
    Воскресенье
    +2°
    +23°
    Ясно и безоблачно
    ВремяПогодаТемператураВлажностьДавлениеВетер, м/сВероятность осадков
    02:00Ясно и безоблачно+8°C16 %670 мм2.9 м/с2 %
    05:00Ясно и безоблачно+6°C23 %670 мм2.8 м/с2 %
    08:00Ясно и безоблачно+10°C22 %672 мм4.3 м/с2 %
    11:00Ясно и безоблачно+19°C23 %675 мм5.7 м/с2 %
    14:00Ясно и безоблачно+23°C13 %674 мм5.0 м/с2 %
    17:00Ясно и безоблачно+21°C13 %674 мм4.0 м/с2 %
    20:00Ясно и безоблачно+13°C27 %673 мм2.6 м/с2 %
    23:00Ясно и безоблачно+8°C37 %673 мм2.3 м/с2 %
Мы используем cookies
Соглашаюсь